Silver Soul — HP3446 — position and weather

sailwx.info

Track history (hours):
 
Tides and Currents Weather Stations Pressure Air Temp Water Temp Dewpoint Dewpoint Depression Visibility Wind Speed Wind Dir Waves Ship Positions

Silver Soul

Last reported at 2018-Mar-29 11:42 UTC. Time now 2018-Jul-20 16:00 UTC.
Position S 31°59' E 034°34'.
Warning: this ship's position is months out of date.

Length 184 m; draft 7.3 m.

Type: Cargo ship. MMSI: 351852000.

Date/timePositionNaut miles runAvg speedWind from/ knotsBaromVisibWave heightAir tempDewpointWater temp
2018-Mar-29 11:42S 31°59' E 034°34'18912.4
2018-Mar-28 20:27S 33°00' E 031°01'1212.0
2018-Mar-28 19:25S 33°04' E 030°48'511.9
2018-Mar-28 19:00S 33°06' E 030°42'1211.6
2018-Mar-28 18:00S 33°10' E 030°29'611.6
2018-Mar-28 17:30S 33°12' E 030°23'611.5
2018-Mar-28 16:59S 33°14' E 030°16'611.7
2018-Mar-28 16:30S 33°16' E 030°10'611.6
2018-Mar-28 16:00S 33°18' E 030°03'611.6
2018-Mar-28 15:30S 33°20' E 029°57'611.7
2018-Mar-28 15:00S 33°22' E 029°50'811.8
2018-Mar-28 14:20S 33°25' E 029°41'512.0
2018-Mar-28 13:55S 33°27' E 029°36'711.8
2018-Mar-28 13:22S 33°29' E 029°28'1211.7
2018-Mar-28 12:22S 33°34' E 029°15'711.0
2018-Mar-28 11:42S 33°37' E 029°07'  
Track history (hours):
 
Tides and Currents Weather Stations Pressure Air Temp Water Temp Dewpoint Dewpoint Depression Visibility Wind Speed Wind Dir Waves Ship Positions

Silver Soul

Last reported at 2018-Mar-29 11:42 UTC. Time now 2018-Jul-20 16:00 UTC.
Position S 31°59' E 034°34'.
Warning: this ship's position is months out of date.

Length 184 m; draft 7.3 m.

Type: Cargo ship. MMSI: 351852000.

Date/timePositionNaut miles runAvg speedWind from/ knotsBaromVisibWave heightAir tempDewpointWater temp
2018-Mar-29 11:42S 31°59' E 034°34'18912.4
2018-Mar-28 20:27S 33°00' E 031°01'1212.0
2018-Mar-28 19:25S 33°04' E 030°48'511.9
2018-Mar-28 19:00S 33°06' E 030°42'1211.6
2018-Mar-28 18:00S 33°10' E 030°29'611.6
2018-Mar-28 17:30S 33°12' E 030°23'611.5
2018-Mar-28 16:59S 33°14' E 030°16'611.7
2018-Mar-28 16:30S 33°16' E 030°10'611.6
2018-Mar-28 16:00S 33°18' E 030°03'611.6
2018-Mar-28 15:30S 33°20' E 029°57'611.7
2018-Mar-28 15:00S 33°22' E 029°50'811.8
2018-Mar-28 14:20S 33°25' E 029°41'512.0
2018-Mar-28 13:55S 33°27' E 029°36'711.8
2018-Mar-28 13:22S 33°29' E 029°28'1211.7
2018-Mar-28 12:22S 33°34' E 029°15'711.0
2018-Mar-28 11:42S 33°37' E 029°07'  

Dump ship's entire track history